sensor_id;sensor_type;location;lat;lon;timestamp;temperature;humidity
12726;DHT22;6427;49.754;6.106;2024-03-22T00:02:05;12.60;99.90
12726;DHT22;6427;49.754;6.106;2024-03-22T00:04:33;12.90;99.90
12726;DHT22;6427;49.754;6.106;2024-03-22T00:07:00;12.80;99.90
12726;DHT22;6427;49.754;6.106;2024-03-22T00:09:28;12.70;99.90
12726;DHT22;6427;49.754;6.106;2024-03-22T00:11:56;12.70;99.90
12726;DHT22;6427;49.754;6.106;2024-03-22T00:14:24;12.60;99.90
12726;DHT22;6427;49.754;6.106;2024-03-22T00:16:51;12.60;99.90
12726;DHT22;6427;49.754;6.106;2024-03-22T00:19:19;12.60;99.90
12726;DHT22;6427;49.754;6.106;2024-03-22T00:21:46;12.60;99.90
12726;DHT22;6427;49.754;6.106;2024-03-22T00:24:14;12.50;99.90
12726;DHT22;6427;49.754;6.106;2024-03-22T00:26:41;12.90;99.90
12726;DHT22;6427;49.754;6.106;2024-03-22T00:29:09;12.80;99.90
12726;DHT22;6427;49.754;6.106;2024-03-22T00:31:36;12.70;99.90
12726;DHT22;6427;49.754;6.106;2024-03-22T00:34:04;12.60;99.90
12726;DHT22;6427;49.754;6.106;2024-03-22T00:36:31;12.60;99.90
12726;DHT22;6427;49.754;6.106;2024-03-22T00:38:59;12.50;99.90
12726;DHT22;6427;49.754;6.106;2024-03-22T00:41:28;12.50;99.90
12726;DHT22;6427;49.754;6.106;2024-03-22T00:43:55;12.50;99.90
12726;DHT22;6427;49.754;6.106;2024-03-22T00:46:22;12.50;99.90
12726;DHT22;6427;49.754;6.106;2024-03-22T00:48:50;12.50;99.90
12726;DHT22;6427;49.754;6.106;2024-03-22T00:51:18;12.50;99.90
12726;DHT22;6427;49.754;6.106;2024-03-22T00:53:45;12.50;99.90
12726;DHT22;6427;49.754;6.106;2024-03-22T00:56:13;12.80;99.90
12726;DHT22;6427;49.754;6.106;2024-03-22T00:58:40;12.70;99.90
12726;DHT22;6427;49.754;6.106;2024-03-22T01:01:08;13.00;99.90
12726;DHT22;6427;49.754;6.106;2024-03-22T01:03:35;12.80;99.90
12726;DHT22;6427;49.754;6.106;2024-03-22T01:06:03;12.80;99.90
12726;DHT22;6427;49.754;6.106;2024-03-22T01:08:31;12.60;99.90
12726;DHT22;6427;49.754;6.106;2024-03-22T01:10:59;12.60;99.90
12726;DHT22;6427;49.754;6.106;2024-03-22T01:13:26;12.60;99.90
12726;DHT22;6427;49.754;6.106;2024-03-22T01:15:54;12.50;99.90
12726;DHT22;6427;49.754;6.106;2024-03-22T01:18:21;12.50;99.90
12726;DHT22;6427;49.754;6.106;2024-03-22T01:20:49;12.50;99.90
12726;DHT22;6427;49.754;6.106;2024-03-22T01:23:16;12.50;99.90
12726;DHT22;6427;49.754;6.106;2024-03-22T01:25:44;12.50;99.90
12726;DHT22;6427;49.754;6.106;2024-03-22T01:28:12;12.50;99.90
12726;DHT22;6427;49.754;6.106;2024-03-22T01:30:39;12.50;99.90
12726;DHT22;6427;49.754;6.106;2024-03-22T01:33:07;12.50;99.90
12726;DHT22;6427;49.754;6.106;2024-03-22T01:35:34;12.50;99.90
12726;DHT22;6427;49.754;6.106;2024-03-22T01:38:02;12.50;99.90
12726;DHT22;6427;49.754;6.106;2024-03-22T01:40:29;12.50;99.90
12726;DHT22;6427;49.754;6.106;2024-03-22T01:42:57;12.80;99.90
12726;DHT22;6427;49.754;6.106;2024-03-22T01:45:24;12.80;99.90
12726;DHT22;6427;49.754;6.106;2024-03-22T01:47:52;12.70;99.90
12726;DHT22;6427;49.754;6.106;2024-03-22T01:50:21;12.90;99.90
12726;DHT22;6427;49.754;6.106;2024-03-22T01:52:48;12.90;99.90
12726;DHT22;6427;49.754;6.106;2024-03-22T01:55:15;12.80;99.90
12726;DHT22;6427;49.754;6.106;2024-03-22T01:57:43;12.70;99.90
12726;DHT22;6427;49.754;6.106;2024-03-22T02:00:11;12.70;99.90
12726;DHT22;6427;49.754;6.106;2024-03-22T02:02:38;12.60;99.90
12726;DHT22;6427;49.754;6.106;2024-03-22T02:05:16;13.10;99.90
12726;DHT22;6427;49.754;6.106;2024-03-22T02:07:44;12.90;99.90
12726;DHT22;6427;49.754;6.106;2024-03-22T02:10:12;12.80;99.90
12726;DHT22;6427;49.754;6.106;2024-03-22T02:12:40;12.80;99.90
12726;DHT22;6427;49.754;6.106;2024-03-22T02:15:08;12.60;99.90
12726;DHT22;6427;49.754;6.106;2024-03-22T02:17:36;12.60;99.90
12726;DHT22;6427;49.754;6.106;2024-03-22T02:20:03;12.60;99.90
12726;DHT22;6427;49.754;6.106;2024-03-22T02:22:31;12.50;99.90
12726;DHT22;6427;49.754;6.106;2024-03-22T02:24:59;12.40;99.90
12726;DHT22;6427;49.754;6.106;2024-03-22T02:27:26;12.40;99.90
12726;DHT22;6427;49.754;6.106;2024-03-22T02:29:54;12.40;99.90
12726;DHT22;6427;49.754;6.106;2024-03-22T02:32:22;12.30;99.90
12726;DHT22;6427;49.754;6.106;2024-03-22T02:34:49;12.30;99.90
12726;DHT22;6427;49.754;6.106;2024-03-22T02:37:17;12.30;99.90
12726;DHT22;6427;49.754;6.106;2024-03-22T02:39:45;12.30;99.90
12726;DHT22;6427;49.754;6.106;2024-03-22T02:42:13;12.30;99.90
12726;DHT22;6427;49.754;6.106;2024-03-22T02:44:40;12.20;99.90
12726;DHT22;6427;49.754;6.106;2024-03-22T02:47:08;12.20;99.90
12726;DHT22;6427;49.754;6.106;2024-03-22T02:49:35;12.20;99.90
12726;DHT22;6427;49.754;6.106;2024-03-22T02:52:03;12.30;99.90
12726;DHT22;6427;49.754;6.106;2024-03-22T02:54:30;12.20;99.90
12726;DHT22;6427;49.754;6.106;2024-03-22T02:56:59;12.20;99.90
12726;DHT22;6427;49.754;6.106;2024-03-22T02:59:26;12.20;99.90
12726;DHT22;6427;49.754;6.106;2024-03-22T03:01:54;12.20;99.90
12726;DHT22;6427;49.754;6.106;2024-03-22T03:04:21;12.20;99.90
12726;DHT22;6427;49.754;6.106;2024-03-22T03:06:49;12.50;99.90
12726;DHT22;6427;49.754;6.106;2024-03-22T03:09:16;12.40;99.90
12726;DHT22;6427;49.754;6.106;2024-03-22T03:11:44;12.30;99.90
12726;DHT22;6427;49.754;6.106;2024-03-22T03:14:12;12.20;99.90
12726;DHT22;6427;49.754;6.106;2024-03-22T03:16:39;12.20;99.90
12726;DHT22;6427;49.754;6.106;2024-03-22T03:19:07;12.10;99.90
12726;DHT22;6427;49.754;6.106;2024-03-22T03:21:34;12.00;99.90
12726;DHT22;6427;49.754;6.106;2024-03-22T03:24:02;12.00;99.90
12726;DHT22;6427;49.754;6.106;2024-03-22T03:26:29;12.00;99.90
12726;DHT22;6427;49.754;6.106;2024-03-22T03:28:58;11.90;99.90
12726;DHT22;6427;49.754;6.106;2024-03-22T03:31:25;11.90;99.90
12726;DHT22;6427;49.754;6.106;2024-03-22T03:33:53;11.90;99.90
12726;DHT22;6427;49.754;6.106;2024-03-22T03:36:20;11.90;99.90
12726;DHT22;6427;49.754;6.106;2024-03-22T03:38:48;11.90;99.90
12726;DHT22;6427;49.754;6.106;2024-03-22T03:41:16;11.90;99.90
12726;DHT22;6427;49.754;6.106;2024-03-22T03:43:44;11.80;99.90
12726;DHT22;6427;49.754;6.106;2024-03-22T03:46:11;11.80;99.90
12726;DHT22;6427;49.754;6.106;2024-03-22T03:48:39;11.80;99.90
12726;DHT22;6427;49.754;6.106;2024-03-22T03:51:06;11.80;99.90
12726;DHT22;6427;49.754;6.106;2024-03-22T03:53:34;11.80;99.90
12726;DHT22;6427;49.754;6.106;2024-03-22T03:56:01;11.80;99.90
12726;DHT22;6427;49.754;6.106;2024-03-22T03:58:29;11.80;99.90
12726;DHT22;6427;49.754;6.106;2024-03-22T04:00:57;11.80;99.90
12726;DHT22;6427;49.754;6.106;2024-03-22T04:03:25;11.80;99.90
12726;DHT22;6427;49.754;6.106;2024-03-22T04:05:57;11.80;99.90
12726;DHT22;6427;49.754;6.106;2024-03-22T04:08:27;11.80;99.90
12726;DHT22;6427;49.754;6.106;2024-03-22T04:10:54;11.80;99.90
12726;DHT22;6427;49.754;6.106;2024-03-22T04:13:22;11.80;99.90
12726;DHT22;6427;49.754;6.106;2024-03-22T04:15:49;11.80;99.90
12726;DHT22;6427;49.754;6.106;2024-03-22T04:18:17;11.80;99.90
12726;DHT22;6427;49.754;6.106;2024-03-22T04:20:57;11.80;99.90
12726;DHT22;6427;49.754;6.106;2024-03-22T04:23:25;11.70;99.90
12726;DHT22;6427;49.754;6.106;2024-03-22T04:25:56;11.70;99.90
12726;DHT22;6427;49.754;6.106;2024-03-22T04:28:24;11.60;99.90
12726;DHT22;6427;49.754;6.106;2024-03-22T04:31:00;11.60;99.90
12726;DHT22;6427;49.754;6.106;2024-03-22T04:33:28;11.60;99.90
12726;DHT22;6427;49.754;6.106;2024-03-22T04:35:55;11.50;99.90
12726;DHT22;6427;49.754;6.106;2024-03-22T04:38:23;11.80;99.90
12726;DHT22;6427;49.754;6.106;2024-03-22T04:40:50;11.70;99.90
12726;DHT22;6427;49.754;6.106;2024-03-22T04:43:18;11.60;99.90
12726;DHT22;6427;49.754;6.106;2024-03-22T04:45:45;11.90;99.90
12726;DHT22;6427;49.754;6.106;2024-03-22T04:48:14;11.80;99.90
12726;DHT22;6427;49.754;6.106;2024-03-22T04:50:40;11.70;99.90
12726;DHT22;6427;49.754;6.106;2024-03-22T04:53:08;12.10;99.90
12726;DHT22;6427;49.754;6.106;2024-03-22T04:55:36;12.00;99.90
12726;DHT22;6427;49.754;6.106;2024-03-22T04:58:03;11.90;99.90
12726;DHT22;6427;49.754;6.106;2024-03-22T05:00:31;11.90;99.90
12726;DHT22;6427;49.754;6.106;2024-03-22T05:02:58;11.80;99.90
12726;DHT22;6427;49.754;6.106;2024-03-22T05:05:26;11.80;99.90
12726;DHT22;6427;49.754;6.106;2024-03-22T05:07:53;12.10;99.90
12726;DHT22;6427;49.754;6.106;2024-03-22T05:10:21;12.00;99.90
12726;DHT22;6427;49.754;6.106;2024-03-22T05:12:48;11.90;99.90
12726;DHT22;6427;49.754;6.106;2024-03-22T05:15:16;11.90;99.90
12726;DHT22;6427;49.754;6.106;2024-03-22T05:17:44;11.90;99.90
12726;DHT22;6427;49.754;6.106;2024-03-22T05:20:11;11.80;99.90
12726;DHT22;6427;49.754;6.106;2024-03-22T05:22:39;11.80;99.90
12726;DHT22;6427;49.754;6.106;2024-03-22T05:25:07;11.80;99.90
12726;DHT22;6427;49.754;6.106;2024-03-22T05:27:35;11.80;99.90
12726;DHT22;6427;49.754;6.106;2024-03-22T05:30:03;11.80;99.90
12726;DHT22;6427;49.754;6.106;2024-03-22T05:32:33;11.80;99.90
12726;DHT22;6427;49.754;6.106;2024-03-22T05:35:01;11.80;99.90
12726;DHT22;6427;49.754;6.106;2024-03-22T05:37:29;11.80;99.90
12726;DHT22;6427;49.754;6.106;2024-03-22T05:39:56;12.20;99.90
12726;DHT22;6427;49.754;6.106;2024-03-22T05:42:24;12.10;99.90
12726;DHT22;6427;49.754;6.106;2024-03-22T05:44:51;12.40;99.90
12726;DHT22;6427;49.754;6.106;2024-03-22T05:47:19;12.30;99.90
12726;DHT22;6427;49.754;6.106;2024-03-22T05:49:46;12.20;99.90
12726;DHT22;6427;49.754;6.106;2024-03-22T05:52:14;12.10;99.90
12726;DHT22;6427;49.754;6.106;2024-03-22T05:54:41;12.10;99.90
12726;DHT22;6427;49.754;6.106;2024-03-22T05:57:09;12.00;99.90
12726;DHT22;6427;49.754;6.106;2024-03-22T05:59:37;12.00;99.90
12726;DHT22;6427;49.754;6.106;2024-03-22T06:02:06;12.00;99.90
12726;DHT22;6427;49.754;6.106;2024-03-22T06:04:33;12.00;99.90
12726;DHT22;6427;49.754;6.106;2024-03-22T06:07:01;12.00;99.90
12726;DHT22;6427;49.754;6.106;2024-03-22T06:09:29;11.90;99.90
12726;DHT22;6427;49.754;6.106;2024-03-22T06:12:01;12.00;99.90
12726;DHT22;6427;49.754;6.106;2024-03-22T06:14:29;11.90;99.90
12726;DHT22;6427;49.754;6.106;2024-03-22T06:16:57;11.90;99.90
12726;DHT22;6427;49.754;6.106;2024-03-22T06:19:24;11.80;99.90
12726;DHT22;6427;49.754;6.106;2024-03-22T06:21:52;11.80;99.90
12726;DHT22;6427;49.754;6.106;2024-03-22T06:24:20;11.80;99.90
12726;DHT22;6427;49.754;6.106;2024-03-22T06:26:48;11.80;99.90
12726;DHT22;6427;49.754;6.106;2024-03-22T06:29:15;11.80;99.90
12726;DHT22;6427;49.754;6.106;2024-03-22T06:31:43;11.80;99.90
12726;DHT22;6427;49.754;6.106;2024-03-22T06:34:10;11.70;99.90
12726;DHT22;6427;49.754;6.106;2024-03-22T06:36:39;11.80;99.90
12726;DHT22;6427;49.754;6.106;2024-03-22T06:39:06;11.70;99.90
12726;DHT22;6427;49.754;6.106;2024-03-22T06:41:34;11.80;99.90
12726;DHT22;6427;49.754;6.106;2024-03-22T06:44:02;11.80;99.90
12726;DHT22;6427;49.754;6.106;2024-03-22T06:46:29;11.80;99.90
12726;DHT22;6427;49.754;6.106;2024-03-22T06:48:57;11.80;99.90
12726;DHT22;6427;49.754;6.106;2024-03-22T06:51:25;11.90;99.90
12726;DHT22;6427;49.754;6.106;2024-03-22T06:53:52;11.90;99.90
12726;DHT22;6427;49.754;6.106;2024-03-22T06:56:20;11.90;99.90
12726;DHT22;6427;49.754;6.106;2024-03-22T06:58:47;11.90;99.90
12726;DHT22;6427;49.754;6.106;2024-03-22T07:01:15;12.00;99.90
12726;DHT22;6427;49.754;6.106;2024-03-22T07:03:42;12.00;99.90
12726;DHT22;6427;49.754;6.106;2024-03-22T07:06:10;12.00;99.90
12726;DHT22;6427;49.754;6.106;2024-03-22T07:08:38;12.10;99.90
12726;DHT22;6427;49.754;6.106;2024-03-22T07:11:05;12.10;99.90
12726;DHT22;6427;49.754;6.106;2024-03-22T07:13:33;12.10;99.90
12726;DHT22;6427;49.754;6.106;2024-03-22T07:16:01;12.20;99.90
12726;DHT22;6427;49.754;6.106;2024-03-22T07:18:28;12.20;99.90
12726;DHT22;6427;49.754;6.106;2024-03-22T07:20:56;12.20;99.90
12726;DHT22;6427;49.754;6.106;2024-03-22T07:23:24;12.30;99.90
12726;DHT22;6427;49.754;6.106;2024-03-22T07:25:52;12.40;99.90
12726;DHT22;6427;49.754;6.106;2024-03-22T07:28:20;12.40;99.90
12726;DHT22;6427;49.754;6.106;2024-03-22T07:30:47;12.50;99.90
12726;DHT22;6427;49.754;6.106;2024-03-22T07:33:15;12.50;99.90
12726;DHT22;6427;49.754;6.106;2024-03-22T07:35:42;12.60;99.90
12726;DHT22;6427;49.754;6.106;2024-03-22T07:38:10;12.60;99.90
12726;DHT22;6427;49.754;6.106;2024-03-22T07:40:37;12.70;99.90
12726;DHT22;6427;49.754;6.106;2024-03-22T07:43:05;12.70;99.90
12726;DHT22;6427;49.754;6.106;2024-03-22T07:45:35;12.80;99.90
12726;DHT22;6427;49.754;6.106;2024-03-22T07:48:04;12.90;99.90
12726;DHT22;6427;49.754;6.106;2024-03-22T07:50:31;12.90;99.90
12726;DHT22;6427;49.754;6.106;2024-03-22T07:53:00;13.00;99.90
12726;DHT22;6427;49.754;6.106;2024-03-22T07:55:27;13.00;99.90
12726;DHT22;6427;49.754;6.106;2024-03-22T07:57:55;13.10;99.90
12726;DHT22;6427;49.754;6.106;2024-03-22T08:00:22;13.20;99.90
12726;DHT22;6427;49.754;6.106;2024-03-22T08:02:50;13.30;99.90
12726;DHT22;6427;49.754;6.106;2024-03-22T08:05:17;13.80;99.90
12726;DHT22;6427;49.754;6.106;2024-03-22T08:07:45;13.80;99.90
12726;DHT22;6427;49.754;6.106;2024-03-22T08:10:12;14.10;99.90
12726;DHT22;6427;49.754;6.106;2024-03-22T08:12:40;14.10;99.90
12726;DHT22;6427;49.754;6.106;2024-03-22T08:15:08;14.10;99.90
12726;DHT22;6427;49.754;6.106;2024-03-22T08:17:36;14.30;99.90
12726;DHT22;6427;49.754;6.106;2024-03-22T08:20:04;14.30;99.90
12726;DHT22;6427;49.754;6.106;2024-03-22T08:22:31;14.30;99.90
12726;DHT22;6427;49.754;6.106;2024-03-22T08:24:59;14.30;99.90
12726;DHT22;6427;49.754;6.106;2024-03-22T08:27:26;14.60;99.90
12726;DHT22;6427;49.754;6.106;2024-03-22T08:29:54;14.60;99.90
12726;DHT22;6427;49.754;6.106;2024-03-22T08:32:21;14.60;99.90
12726;DHT22;6427;49.754;6.106;2024-03-22T08:34:49;14.70;99.90
12726;DHT22;6427;49.754;6.106;2024-03-22T08:37:17;14.80;99.90
12726;DHT22;6427;49.754;6.106;2024-03-22T08:39:45;14.80;99.90
12726;DHT22;6427;49.754;6.106;2024-03-22T08:42:12;14.80;99.90
12726;DHT22;6427;49.754;6.106;2024-03-22T08:44:40;14.90;99.90
12726;DHT22;6427;49.754;6.106;2024-03-22T08:47:08;15.00;99.90
12726;DHT22;6427;49.754;6.106;2024-03-22T08:49:35;15.20;99.90
12726;DHT22;6427;49.754;6.106;2024-03-22T08:52:03;15.30;99.90
12726;DHT22;6427;49.754;6.106;2024-03-22T08:54:30;15.70;99.90
12726;DHT22;6427;49.754;6.106;2024-03-22T08:56:58;15.80;99.90
12726;DHT22;6427;49.754;6.106;2024-03-22T08:59:25;15.90;99.90
12726;DHT22;6427;49.754;6.106;2024-03-22T09:01:53;16.30;99.90
12726;DHT22;6427;49.754;6.106;2024-03-22T09:04:21;16.30;99.90
12726;DHT22;6427;49.754;6.106;2024-03-22T09:06:49;16.30;99.90
12726;DHT22;6427;49.754;6.106;2024-03-22T09:09:17;16.30;99.90
12726;DHT22;6427;49.754;6.106;2024-03-22T09:11:45;16.30;99.90
12726;DHT22;6427;49.754;6.106;2024-03-22T09:14:12;16.40;99.90
12726;DHT22;6427;49.754;6.106;2024-03-22T09:16:40;16.40;99.90
12726;DHT22;6427;49.754;6.106;2024-03-22T09:19:08;16.50;99.90
12726;DHT22;6427;49.754;6.106;2024-03-22T09:21:36;16.50;99.90
12726;DHT22;6427;49.754;6.106;2024-03-22T09:24:04;16.60;99.90
12726;DHT22;6427;49.754;6.106;2024-03-22T09:26:35;16.60;99.90
12726;DHT22;6427;49.754;6.106;2024-03-22T09:29:02;16.60;99.90
12726;DHT22;6427;49.754;6.106;2024-03-22T09:31:30;16.80;99.90
12726;DHT22;6427;49.754;6.106;2024-03-22T09:33:58;16.80;99.90
12726;DHT22;6427;49.754;6.106;2024-03-22T09:36:26;16.90;99.90
12726;DHT22;6427;49.754;6.106;2024-03-22T09:38:53;17.30;99.90
12726;DHT22;6427;49.754;6.106;2024-03-22T09:41:22;17.30;99.90
12726;DHT22;6427;49.754;6.106;2024-03-22T09:43:48;17.30;99.90
12726;DHT22;6427;49.754;6.106;2024-03-22T09:46:16;17.30;99.80
12726;DHT22;6427;49.754;6.106;2024-03-22T09:48:43;17.70;99.40
12726;DHT22;6427;49.754;6.106;2024-03-22T09:51:11;17.70;99.40
12726;DHT22;6427;49.754;6.106;2024-03-22T09:53:38;17.80;99.30
12726;DHT22;6427;49.754;6.106;2024-03-22T09:56:06;18.20;98.70
12726;DHT22;6427;49.754;6.106;2024-03-22T09:58:34;18.20;98.20
12726;DHT22;6427;49.754;6.106;2024-03-22T10:01:01;18.30;98.10
12726;DHT22;6427;49.754;6.106;2024-03-22T10:03:30;18.80;96.50
12726;DHT22;6427;49.754;6.106;2024-03-22T10:05:57;18.80;96.40
12726;DHT22;6427;49.754;6.106;2024-03-22T10:08:25;18.80;96.40
12726;DHT22;6427;49.754;6.106;2024-03-22T10:10:52;18.90;96.50
12726;DHT22;6427;49.754;6.106;2024-03-22T10:13:20;18.90;96.00
12726;DHT22;6427;49.754;6.106;2024-03-22T10:15:47;19.00;95.90
12726;DHT22;6427;49.754;6.106;2024-03-22T10:18:15;19.30;95.50
12726;DHT22;6427;49.754;6.106;2024-03-22T10:20:43;19.40;95.10
12726;DHT22;6427;49.754;6.106;2024-03-22T10:23:10;19.60;94.50
12726;DHT22;6427;49.754;6.106;2024-03-22T10:25:38;19.40;93.90
12726;DHT22;6427;49.754;6.106;2024-03-22T10:28:06;19.20;94.10
12726;DHT22;6427;49.754;6.106;2024-03-22T10:30:34;19.10;94.10
12726;DHT22;6427;49.754;6.106;2024-03-22T10:33:01;19.30;93.70
12726;DHT22;6427;49.754;6.106;2024-03-22T10:35:29;19.20;93.70
12726;DHT22;6427;49.754;6.106;2024-03-22T10:37:56;19.30;93.50
12726;DHT22;6427;49.754;6.106;2024-03-22T10:40:24;19.20;93.50
12726;DHT22;6427;49.754;6.106;2024-03-22T10:42:51;19.00;93.70
12726;DHT22;6427;49.754;6.106;2024-03-22T10:45:19;19.20;93.40
12726;DHT22;6427;49.754;6.106;2024-03-22T10:47:47;19.00;93.60
12726;DHT22;6427;49.754;6.106;2024-03-22T10:50:14;19.00;93.90
12726;DHT22;6427;49.754;6.106;2024-03-22T10:52:52;18.90;94.30
12726;DHT22;6427;49.754;6.106;2024-03-22T10:55:30;18.90;94.30
12726;DHT22;6427;49.754;6.106;2024-03-22T10:57:58;18.80;94.20
12726;DHT22;6427;49.754;6.106;2024-03-22T11:00:28;18.70;94.30
12726;DHT22;6427;49.754;6.106;2024-03-22T11:02:56;19.00;93.90
12726;DHT22;6427;49.754;6.106;2024-03-22T11:05:23;18.90;93.50
12726;DHT22;6427;49.754;6.106;2024-03-22T11:08:03;18.70;93.50
12726;DHT22;6427;49.754;6.106;2024-03-22T11:10:33;18.60;93.40
12726;DHT22;6427;49.754;6.106;2024-03-22T11:13:02;18.60;93.40
12726;DHT22;6427;49.754;6.106;2024-03-22T11:15:29;18.50;93.30
12726;DHT22;6427;49.754;6.106;2024-03-22T11:17:57;18.70;92.80
12726;DHT22;6427;49.754;6.106;2024-03-22T11:20:24;18.50;92.60
12726;DHT22;6427;49.754;6.106;2024-03-22T11:22:51;18.40;92.70
12726;DHT22;6427;49.754;6.106;2024-03-22T11:25:19;18.20;92.70
12726;DHT22;6427;49.754;6.106;2024-03-22T11:27:46;18.10;93.20
12726;DHT22;6427;49.754;6.106;2024-03-22T11:30:15;18.00;93.70
12726;DHT22;6427;49.754;6.106;2024-03-22T11:32:42;17.80;94.10
12726;DHT22;6427;49.754;6.106;2024-03-22T11:35:12;18.00;94.50
12726;DHT22;6427;49.754;6.106;2024-03-22T11:37:41;17.90;94.90
12726;DHT22;6427;49.754;6.106;2024-03-22T11:40:10;18.00;94.30
12726;DHT22;6427;49.754;6.106;2024-03-22T11:42:43;17.70;94.10
12726;DHT22;6427;49.754;6.106;2024-03-22T11:45:06;17.70;94.10
12726;DHT22;6427;49.754;6.106;2024-03-22T11:47:33;17.60;93.90
12726;DHT22;6427;49.754;6.106;2024-03-22T11:50:02;17.40;94.00
12726;DHT22;6427;49.754;6.106;2024-03-22T11:52:29;17.40;93.90
12726;DHT22;6427;49.754;6.106;2024-03-22T11:54:57;17.30;94.20
12726;DHT22;6427;49.754;6.106;2024-03-22T11:57:24;17.20;94.40
12726;DHT22;6427;49.754;6.106;2024-03-22T11:59:52;17.20;94.60
12726;DHT22;6427;49.754;6.106;2024-03-22T12:02:20;17.10;94.60
12726;DHT22;6427;49.754;6.106;2024-03-22T12:04:49;17.00;95.00
12726;DHT22;6427;49.754;6.106;2024-03-22T12:07:16;17.00;95.00
12726;DHT22;6427;49.754;6.106;2024-03-22T12:09:44;17.00;95.20
12726;DHT22;6427;49.754;6.106;2024-03-22T12:12:12;16.90;95.10
12726;DHT22;6427;49.754;6.106;2024-03-22T12:14:40;17.30;95.00
12726;DHT22;6427;49.754;6.106;2024-03-22T12:17:07;17.20;95.00
12726;DHT22;6427;49.754;6.106;2024-03-22T12:19:35;17.30;95.00
12726;DHT22;6427;49.754;6.106;2024-03-22T12:22:02;17.30;95.00
12726;DHT22;6427;49.754;6.106;2024-03-22T12:24:31;17.40;95.00
12726;DHT22;6427;49.754;6.106;2024-03-22T12:26:58;17.70;94.70
12726;DHT22;6427;49.754;6.106;2024-03-22T12:29:25;17.70;94.40
12726;DHT22;6427;49.754;6.106;2024-03-22T12:31:53;17.70;94.50
12726;DHT22;6427;49.754;6.106;2024-03-22T12:34:20;17.70;94.60
12726;DHT22;6427;49.754;6.106;2024-03-22T12:36:48;17.80;94.40
12726;DHT22;6427;49.754;6.106;2024-03-22T12:39:16;18.20;93.00
12726;DHT22;6427;49.754;6.106;2024-03-22T12:41:44;18.20;93.00
12726;DHT22;6427;49.754;6.106;2024-03-22T12:44:11;18.20;92.90
12726;DHT22;6427;49.754;6.106;2024-03-22T12:46:39;18.30;92.90
12726;DHT22;6427;49.754;6.106;2024-03-22T12:49:06;18.40;92.50
12726;DHT22;6427;49.754;6.106;2024-03-22T12:51:37;18.40;92.40
12726;DHT22;6427;49.754;6.106;2024-03-22T12:54:02;18.50;92.50
12726;DHT22;6427;49.754;6.106;2024-03-22T12:56:30;18.50;91.90
12726;DHT22;6427;49.754;6.106;2024-03-22T12:58:57;18.60;91.70
12726;DHT22;6427;49.754;6.106;2024-03-22T13:01:24;18.60;91.40
12726;DHT22;6427;49.754;6.106;2024-03-22T13:03:52;18.60;91.00
12726;DHT22;6427;49.754;6.106;2024-03-22T13:06:19;18.70;91.00
12726;DHT22;6427;49.754;6.106;2024-03-22T13:08:47;18.70;90.80
12726;DHT22;6427;49.754;6.106;2024-03-22T13:11:14;18.70;90.70
12726;DHT22;6427;49.754;6.106;2024-03-22T13:13:42;18.80;90.80
12726;DHT22;6427;49.754;6.106;2024-03-22T13:16:10;18.90;90.70
12726;DHT22;6427;49.754;6.106;2024-03-22T13:18:38;18.90;90.60
12726;DHT22;6427;49.754;6.106;2024-03-22T13:21:05;19.00;90.40
12726;DHT22;6427;49.754;6.106;2024-03-22T13:23:34;19.00;90.40
12726;DHT22;6427;49.754;6.106;2024-03-22T13:26:04;19.00;90.40
12726;DHT22;6427;49.754;6.106;2024-03-22T13:28:33;19.00;90.00
12726;DHT22;6427;49.754;6.106;2024-03-22T13:31:01;18.90;89.80
12726;DHT22;6427;49.754;6.106;2024-03-22T13:33:28;19.00;89.80
12726;DHT22;6427;49.754;6.106;2024-03-22T13:35:55;18.90;89.70
12726;DHT22;6427;49.754;6.106;2024-03-22T13:38:23;18.90;89.60
12726;DHT22;6427;49.754;6.106;2024-03-22T13:40:54;19.00;88.00
12726;DHT22;6427;49.754;6.106;2024-03-22T13:43:22;18.90;88.00
12726;DHT22;6427;49.754;6.106;2024-03-22T13:45:51;18.90;88.00
12726;DHT22;6427;49.754;6.106;2024-03-22T13:48:17;19.00;87.60
12726;DHT22;6427;49.754;6.106;2024-03-22T13:50:46;19.10;87.50
12726;DHT22;6427;49.754;6.106;2024-03-22T13:53:13;19.10;86.90
12726;DHT22;6427;49.754;6.106;2024-03-22T13:55:42;19.50;86.40
12726;DHT22;6427;49.754;6.106;2024-03-22T13:58:08;19.50;86.20
12726;DHT22;6427;49.754;6.106;2024-03-22T14:00:36;19.60;84.90
12726;DHT22;6427;49.754;6.106;2024-03-22T14:03:04;19.60;84.90
12726;DHT22;6427;49.754;6.106;2024-03-22T14:05:32;19.60;84.40
12726;DHT22;6427;49.754;6.106;2024-03-22T14:07:59;19.60;83.80
12726;DHT22;6427;49.754;6.106;2024-03-22T14:10:27;19.60;84.00
12726;DHT22;6427;49.754;6.106;2024-03-22T14:12:55;19.50;83.30
12726;DHT22;6427;49.754;6.106;2024-03-22T14:15:23;19.50;83.30
12726;DHT22;6427;49.754;6.106;2024-03-22T14:17:50;19.50;83.40
12726;DHT22;6427;49.754;6.106;2024-03-22T14:20:18;19.70;82.50
12726;DHT22;6427;49.754;6.106;2024-03-22T14:22:46;19.60;82.80
12726;DHT22;6427;49.754;6.106;2024-03-22T14:25:13;19.60;83.30
12726;DHT22;6427;49.754;6.106;2024-03-22T14:27:40;19.50;82.50
12726;DHT22;6427;49.754;6.106;2024-03-22T14:30:09;19.40;81.60
12726;DHT22;6427;49.754;6.106;2024-03-22T14:32:37;19.40;80.60
12726;DHT22;6427;49.754;6.106;2024-03-22T14:35:05;19.40;80.60
12726;DHT22;6427;49.754;6.106;2024-03-22T14:37:32;19.40;81.40
12726;DHT22;6427;49.754;6.106;2024-03-22T14:40:00;19.40;80.70
12726;DHT22;6427;49.754;6.106;2024-03-22T14:42:27;19.40;80.70
12726;DHT22;6427;49.754;6.106;2024-03-22T14:44:56;19.40;79.00
12726;DHT22;6427;49.754;6.106;2024-03-22T14:47:23;19.30;78.90
12726;DHT22;6427;49.754;6.106;2024-03-22T14:49:51;19.60;77.00
12726;DHT22;6427;49.754;6.106;2024-03-22T14:52:18;19.50;76.60
12726;DHT22;6427;49.754;6.106;2024-03-22T14:54:46;19.40;76.50
12726;DHT22;6427;49.754;6.106;2024-03-22T14:57:13;19.30;76.70
12726;DHT22;6427;49.754;6.106;2024-03-22T14:59:42;19.20;77.00
12726;DHT22;6427;49.754;6.106;2024-03-22T15:02:09;19.20;77.00
12726;DHT22;6427;49.754;6.106;2024-03-22T15:04:38;19.20;77.60
12726;DHT22;6427;49.754;6.106;2024-03-22T15:07:05;19.20;77.60
12726;DHT22;6427;49.754;6.106;2024-03-22T15:09:33;19.20;77.80
12726;DHT22;6427;49.754;6.106;2024-03-22T15:12:00;19.20;77.80
12726;DHT22;6427;49.754;6.106;2024-03-22T15:14:28;19.20;77.90
12726;DHT22;6427;49.754;6.106;2024-03-22T15:16:56;19.20;78.50
12726;DHT22;6427;49.754;6.106;2024-03-22T15:19:24;19.20;79.00
12726;DHT22;6427;49.754;6.106;2024-03-22T15:21:51;19.10;78.60
12726;DHT22;6427;49.754;6.106;2024-03-22T15:24:19;19.10;79.00
12726;DHT22;6427;49.754;6.106;2024-03-22T15:26:46;19.20;79.00
12726;DHT22;6427;49.754;6.106;2024-03-22T15:29:14;19.20;78.70
12726;DHT22;6427;49.754;6.106;2024-03-22T15:31:41;19.30;78.50
12726;DHT22;6427;49.754;6.106;2024-03-22T15:34:10;19.40;77.80
12726;DHT22;6427;49.754;6.106;2024-03-22T15:36:37;19.40;77.70
12726;DHT22;6427;49.754;6.106;2024-03-22T15:39:05;19.60;77.50
12726;DHT22;6427;49.754;6.106;2024-03-22T15:41:32;19.60;76.70
12726;DHT22;6427;49.754;6.106;2024-03-22T15:44:01;19.80;76.10
12726;DHT22;6427;49.754;6.106;2024-03-22T15:46:28;19.80;76.10
12726;DHT22;6427;49.754;6.106;2024-03-22T15:48:56;19.80;75.70